sensor_id;sensor_type;location;lat;lon;timestamp;P1;durP1;ratioP1;P2;durP2;ratioP2
36105;SDS011;22159;55.736;38.048;2023-01-16T00:02:14;3.67;;;1.95;;
36105;SDS011;22159;55.736;38.048;2023-01-16T00:04:40;3.45;;;1.75;;
36105;SDS011;22159;55.736;38.048;2023-01-16T00:07:06;3.25;;;1.70;;
36105;SDS011;22159;55.736;38.048;2023-01-16T00:09:32;2.78;;;1.90;;
36105;SDS011;22159;55.736;38.048;2023-01-16T00:11:58;3.60;;;2.08;;
36105;SDS011;22159;55.736;38.048;2023-01-16T00:14:24;2.58;;;1.80;;
36105;SDS011;22159;55.736;38.048;2023-01-16T00:16:50;2.95;;;1.90;;
36105;SDS011;22159;55.736;38.048;2023-01-16T00:19:16;2.65;;;1.70;;
36105;SDS011;22159;55.736;38.048;2023-01-16T00:21:42;1.90;;;1.42;;
36105;SDS011;22159;55.736;38.048;2023-01-16T00:24:09;4.45;;;1.88;;
36105;SDS011;22159;55.736;38.048;2023-01-16T00:26:35;4.55;;;1.88;;
36105;SDS011;22159;55.736;38.048;2023-01-16T00:29:01;2.75;;;1.95;;
36105;SDS011;22159;55.736;38.048;2023-01-16T00:31:27;3.42;;;2.03;;
36105;SDS011;22159;55.736;38.048;2023-01-16T00:33:53;3.55;;;2.03;;
36105;SDS011;22159;55.736;38.048;2023-01-16T00:36:19;2.63;;;1.90;;
36105;SDS011;22159;55.736;38.048;2023-01-16T00:38:45;3.28;;;1.90;;
36105;SDS011;22159;55.736;38.048;2023-01-16T00:41:11;3.13;;;1.90;;
36105;SDS011;22159;55.736;38.048;2023-01-16T00:43:37;2.88;;;1.77;;
36105;SDS011;22159;55.736;38.048;2023-01-16T00:46:03;2.55;;;2.20;;
36105;SDS011;22159;55.736;38.048;2023-01-16T00:48:29;2.63;;;1.95;;
36105;SDS011;22159;55.736;38.048;2023-01-16T00:50:55;2.05;;;1.63;;
36105;SDS011;22159;55.736;38.048;2023-01-16T00:53:21;2.72;;;1.83;;
36105;SDS011;22159;55.736;38.048;2023-01-16T00:55:49;2.33;;;1.80;;
36105;SDS011;22159;55.736;38.048;2023-01-16T00:58:16;2.35;;;1.67;;
36105;SDS011;22159;55.736;38.048;2023-01-16T01:00:42;3.67;;;1.95;;
36105;SDS011;22159;55.736;38.048;2023-01-16T01:03:08;2.40;;;2.03;;
36105;SDS011;22159;55.736;38.048;2023-01-16T01:05:35;2.20;;;1.90;;
36105;SDS011;22159;55.736;38.048;2023-01-16T01:08:01;5.50;;;2.05;;
36105;SDS011;22159;55.736;38.048;2023-01-16T01:10:27;2.47;;;2.00;;
36105;SDS011;22159;55.736;38.048;2023-01-16T01:12:54;3.38;;;1.88;;
36105;SDS011;22159;55.736;38.048;2023-01-16T01:15:20;3.33;;;2.00;;
36105;SDS011;22159;55.736;38.048;2023-01-16T01:17:46;2.88;;;1.77;;
36105;SDS011;22159;55.736;38.048;2023-01-16T01:20:12;2.40;;;1.63;;
36105;SDS011;22159;55.736;38.048;2023-01-16T01:22:38;3.28;;;1.88;;
36105;SDS011;22159;55.736;38.048;2023-01-16T01:25:05;3.00;;;1.75;;
36105;SDS011;22159;55.736;38.048;2023-01-16T01:27:31;3.08;;;1.80;;
36105;SDS011;22159;55.736;38.048;2023-01-16T01:29:57;3.58;;;1.75;;
36105;SDS011;22159;55.736;38.048;2023-01-16T01:32:23;3.28;;;1.75;;
36105;SDS011;22159;55.736;38.048;2023-01-16T01:34:49;4.00;;;2.03;;
36105;SDS011;22159;55.736;38.048;2023-01-16T01:37:15;2.95;;;2.00;;
36105;SDS011;22159;55.736;38.048;2023-01-16T01:39:41;3.35;;;1.75;;
36105;SDS011;22159;55.736;38.048;2023-01-16T01:42:09;4.13;;;1.90;;
36105;SDS011;22159;55.736;38.048;2023-01-16T01:45:01;5.65;;;2.08;;
36105;SDS011;22159;55.736;38.048;2023-01-16T01:47:36;2.70;;;1.83;;
36105;SDS011;22159;55.736;38.048;2023-01-16T01:50:04;4.03;;;1.80;;
36105;SDS011;22159;55.736;38.048;2023-01-16T01:52:36;4.40;;;2.08;;
36105;SDS011;22159;55.736;38.048;2023-01-16T01:55:03;1.92;;;1.70;;
36105;SDS011;22159;55.736;38.048;2023-01-16T01:57:32;3.08;;;1.77;;
36105;SDS011;22159;55.736;38.048;2023-01-16T02:00:07;3.72;;;2.00;;
36105;SDS011;22159;55.736;38.048;2023-01-16T02:02:35;4.72;;;1.73;;
36105;SDS011;22159;55.736;38.048;2023-01-16T02:05:04;2.00;;;1.60;;
36105;SDS011;22159;55.736;38.048;2023-01-16T02:07:31;4.57;;;1.90;;
36105;SDS011;22159;55.736;38.048;2023-01-16T02:12:53;3.65;;;1.73;;
36105;SDS011;22159;55.736;38.048;2023-01-16T02:15:20;2.85;;;1.92;;
36105;SDS011;22159;55.736;38.048;2023-01-16T02:17:48;2.90;;;1.67;;
36105;SDS011;22159;55.736;38.048;2023-01-16T02:20:36;3.33;;;1.92;;
36105;SDS011;22159;55.736;38.048;2023-01-16T02:31:11;2.58;;;1.70;;
36105;SDS011;22159;55.736;38.048;2023-01-16T02:41:49;3.25;;;1.67;;
36105;SDS011;22159;55.736;38.048;2023-01-16T02:46:48;3.47;;;1.80;;
36105;SDS011;22159;55.736;38.048;2023-01-16T02:49:28;2.53;;;2.10;;
36105;SDS011;22159;55.736;38.048;2023-01-16T02:54:53;2.85;;;1.60;;
36105;SDS011;22159;55.736;38.048;2023-01-16T02:57:22;2.17;;;1.70;;
36105;SDS011;22159;55.736;38.048;2023-01-16T02:59:49;2.40;;;1.70;;
36105;SDS011;22159;55.736;38.048;2023-01-16T03:02:15;3.10;;;1.42;;
36105;SDS011;22159;55.736;38.048;2023-01-16T03:04:49;2.58;;;1.65;;
36105;SDS011;22159;55.736;38.048;2023-01-16T03:09:46;2.55;;;1.65;;
36105;SDS011;22159;55.736;38.048;2023-01-16T03:19:52;2.78;;;1.60;;
36105;SDS011;22159;55.736;38.048;2023-01-16T03:29:41;2.75;;;1.50;;
36105;SDS011;22159;55.736;38.048;2023-01-16T03:32:12;3.75;;;1.50;;
36105;SDS011;22159;55.736;38.048;2023-01-16T03:35:05;3.28;;;1.60;;
36105;SDS011;22159;55.736;38.048;2023-01-16T03:37:30;1.98;;;1.67;;
36105;SDS011;22159;55.736;38.048;2023-01-16T03:39:59;3.58;;;1.73;;
36105;SDS011;22159;55.736;38.048;2023-01-16T03:42:31;2.95;;;1.77;;
36105;SDS011;22159;55.736;38.048;2023-01-16T03:45:01;3.55;;;2.00;;
36105;SDS011;22159;55.736;38.048;2023-01-16T03:47:33;4.00;;;1.80;;
36105;SDS011;22159;55.736;38.048;2023-01-16T03:50:03;3.80;;;1.58;;
36105;SDS011;22159;55.736;38.048;2023-01-16T03:52:32;3.10;;;1.50;;
36105;SDS011;22159;55.736;38.048;2023-01-16T03:57:36;4.45;;;1.80;;
36105;SDS011;22159;55.736;38.048;2023-01-16T04:00:03;5.97;;;1.83;;
36105;SDS011;22159;55.736;38.048;2023-01-16T04:02:37;6.90;;;2.03;;
36105;SDS011;22159;55.736;38.048;2023-01-16T04:10:41;4.47;;;2.00;;
36105;SDS011;22159;55.736;38.048;2023-01-16T04:13:09;4.50;;;1.88;;
36105;SDS011;22159;55.736;38.048;2023-01-16T04:15:37;4.03;;;1.67;;
36105;SDS011;22159;55.736;38.048;2023-01-16T04:18:05;12.57;;;6.20;;
36105;SDS011;22159;55.736;38.048;2023-01-16T04:20:31;10.23;;;3.42;;
36105;SDS011;22159;55.736;38.048;2023-01-16T04:22:58;9.50;;;3.55;;
36105;SDS011;22159;55.736;38.048;2023-01-16T04:25:24;5.75;;;3.40;;
36105;SDS011;22159;55.736;38.048;2023-01-16T04:27:50;8.30;;;3.28;;
36105;SDS011;22159;55.736;38.048;2023-01-16T04:30:16;8.10;;;3.30;;
36105;SDS011;22159;55.736;38.048;2023-01-16T04:32:42;5.13;;;2.80;;
36105;SDS011;22159;55.736;38.048;2023-01-16T04:35:09;6.18;;;2.53;;
36105;SDS011;22159;55.736;38.048;2023-01-16T04:37:35;5.13;;;2.70;;
36105;SDS011;22159;55.736;38.048;2023-01-16T04:40:01;8.38;;;2.70;;
36105;SDS011;22159;55.736;38.048;2023-01-16T04:42:27;7.63;;;2.90;;
36105;SDS011;22159;55.736;38.048;2023-01-16T04:44:53;4.90;;;2.28;;
36105;SDS011;22159;55.736;38.048;2023-01-16T04:47:19;7.00;;;2.70;;
36105;SDS011;22159;55.736;38.048;2023-01-16T04:49:45;8.27;;;2.30;;
36105;SDS011;22159;55.736;38.048;2023-01-16T04:52:12;5.28;;;1.98;;
36105;SDS011;22159;55.736;38.048;2023-01-16T04:54:38;3.70;;;2.10;;
36105;SDS011;22159;55.736;38.048;2023-01-16T04:57:04;6.88;;;2.10;;
36105;SDS011;22159;55.736;38.048;2023-01-16T04:59:30;6.97;;;2.33;;
36105;SDS011;22159;55.736;38.048;2023-01-16T05:01:56;10.82;;;3.53;;
36105;SDS011;22159;55.736;38.048;2023-01-16T05:04:23;29.45;;;6.90;;
36105;SDS011;22159;55.736;38.048;2023-01-16T05:06:49;17.70;;;5.43;;
36105;SDS011;22159;55.736;38.048;2023-01-16T05:09:15;19.33;;;5.82;;
36105;SDS011;22159;55.736;38.048;2023-01-16T05:11:41;16.67;;;4.82;;
36105;SDS011;22159;55.736;38.048;2023-01-16T05:14:07;17.95;;;4.82;;
36105;SDS011;22159;55.736;38.048;2023-01-16T05:16:36;15.10;;;4.47;;
36105;SDS011;22159;55.736;38.048;2023-01-16T05:19:03;14.98;;;4.45;;
36105;SDS011;22159;55.736;38.048;2023-01-16T05:21:29;17.45;;;4.40;;
36105;SDS011;22159;55.736;38.048;2023-01-16T05:23:55;17.35;;;3.95;;
36105;SDS011;22159;55.736;38.048;2023-01-16T05:26:21;11.73;;;3.85;;
36105;SDS011;22159;55.736;38.048;2023-01-16T05:28:47;14.45;;;3.97;;
36105;SDS011;22159;55.736;38.048;2023-01-16T05:31:13;12.02;;;3.40;;
36105;SDS011;22159;55.736;38.048;2023-01-16T05:33:39;9.05;;;3.58;;
36105;SDS011;22159;55.736;38.048;2023-01-16T05:36:05;8.85;;;3.13;;
36105;SDS011;22159;55.736;38.048;2023-01-16T05:38:31;11.32;;;3.78;;
36105;SDS011;22159;55.736;38.048;2023-01-16T05:40:57;8.15;;;3.40;;
36105;SDS011;22159;55.736;38.048;2023-01-16T05:43:24;10.40;;;3.13;;
36105;SDS011;22159;55.736;38.048;2023-01-16T05:45:50;11.00;;;3.40;;
36105;SDS011;22159;55.736;38.048;2023-01-16T05:48:16;10.68;;;3.63;;
36105;SDS011;22159;55.736;38.048;2023-01-16T05:50:42;6.78;;;2.85;;
36105;SDS011;22159;55.736;38.048;2023-01-16T05:53:08;9.30;;;3.13;;
36105;SDS011;22159;55.736;38.048;2023-01-16T05:55:39;8.10;;;3.00;;
36105;SDS011;22159;55.736;38.048;2023-01-16T05:58:08;8.10;;;3.00;;
36105;SDS011;22159;55.736;38.048;2023-01-16T06:00:35;8.00;;;2.95;;
36105;SDS011;22159;55.736;38.048;2023-01-16T06:03:01;8.60;;;3.35;;
36105;SDS011;22159;55.736;38.048;2023-01-16T06:05:27;8.68;;;2.55;;
36105;SDS011;22159;55.736;38.048;2023-01-16T06:07:56;7.63;;;2.60;;
36105;SDS011;22159;55.736;38.048;2023-01-16T06:10:22;7.80;;;3.22;;
36105;SDS011;22159;55.736;38.048;2023-01-16T06:12:48;6.18;;;2.97;;
36105;SDS011;22159;55.736;38.048;2023-01-16T06:15:14;7.97;;;2.55;;
36105;SDS011;22159;55.736;38.048;2023-01-16T06:17:40;6.60;;;3.05;;
36105;SDS011;22159;55.736;38.048;2023-01-16T06:20:06;8.60;;;2.38;;
36105;SDS011;22159;55.736;38.048;2023-01-16T06:22:33;8.20;;;2.45;;
36105;SDS011;22159;55.736;38.048;2023-01-16T06:24:59;5.38;;;2.25;;
36105;SDS011;22159;55.736;38.048;2023-01-16T06:27:25;9.05;;;3.10;;
36105;SDS011;22159;55.736;38.048;2023-01-16T06:29:51;6.85;;;2.40;;
36105;SDS011;22159;55.736;38.048;2023-01-16T06:32:17;5.25;;;2.30;;
36105;SDS011;22159;55.736;38.048;2023-01-16T06:34:43;5.85;;;2.33;;
36105;SDS011;22159;55.736;38.048;2023-01-16T06:37:10;5.25;;;2.30;;
36105;SDS011;22159;55.736;38.048;2023-01-16T06:39:36;7.05;;;2.78;;
36105;SDS011;22159;55.736;38.048;2023-01-16T06:42:02;5.50;;;2.05;;
36105;SDS011;22159;55.736;38.048;2023-01-16T06:44:30;5.00;;;2.10;;
36105;SDS011;22159;55.736;38.048;2023-01-16T06:46:56;4.60;;;2.03;;
36105;SDS011;22159;55.736;38.048;2023-01-16T06:49:22;6.28;;;2.17;;
36105;SDS011;22159;55.736;38.048;2023-01-16T06:51:48;7.10;;;2.42;;
36105;SDS011;22159;55.736;38.048;2023-01-16T06:54:14;6.70;;;2.08;;
36105;SDS011;22159;55.736;38.048;2023-01-16T06:56:40;5.43;;;2.45;;
36105;SDS011;22159;55.736;38.048;2023-01-16T06:59:06;4.32;;;1.98;;
36105;SDS011;22159;55.736;38.048;2023-01-16T07:01:32;5.53;;;2.03;;
36105;SDS011;22159;55.736;38.048;2023-01-16T07:03:58;4.32;;;2.30;;
36105;SDS011;22159;55.736;38.048;2023-01-16T07:06:24;5.32;;;1.92;;
36105;SDS011;22159;55.736;38.048;2023-01-16T07:08:50;4.72;;;1.90;;
36105;SDS011;22159;55.736;38.048;2023-01-16T07:11:17;5.10;;;2.25;;
36105;SDS011;22159;55.736;38.048;2023-01-16T07:13:43;5.63;;;2.13;;
36105;SDS011;22159;55.736;38.048;2023-01-16T07:16:13;4.05;;;2.05;;
36105;SDS011;22159;55.736;38.048;2023-01-16T07:18:58;3.70;;;1.83;;
36105;SDS011;22159;55.736;38.048;2023-01-16T07:21:43;5.70;;;2.25;;
36105;SDS011;22159;55.736;38.048;2023-01-16T07:24:29;5.15;;;2.40;;
36105;SDS011;22159;55.736;38.048;2023-01-16T07:26:56;6.78;;;2.28;;
36105;SDS011;22159;55.736;38.048;2023-01-16T07:29:27;5.88;;;2.38;;
36105;SDS011;22159;55.736;38.048;2023-01-16T07:31:54;4.43;;;1.75;;
36105;SDS011;22159;55.736;38.048;2023-01-16T07:34:20;6.35;;;2.22;;
36105;SDS011;22159;55.736;38.048;2023-01-16T07:36:47;5.75;;;2.10;;
36105;SDS011;22159;55.736;38.048;2023-01-16T07:39:13;3.70;;;1.67;;
36105;SDS011;22159;55.736;38.048;2023-01-16T07:41:39;4.30;;;2.05;;
36105;SDS011;22159;55.736;38.048;2023-01-16T07:44:05;4.05;;;1.90;;
36105;SDS011;22159;55.736;38.048;2023-01-16T07:46:31;6.63;;;2.40;;
36105;SDS011;22159;55.736;38.048;2023-01-16T07:48:57;6.80;;;2.20;;
36105;SDS011;22159;55.736;38.048;2023-01-16T07:51:24;6.93;;;2.10;;
36105;SDS011;22159;55.736;38.048;2023-01-16T07:53:50;6.32;;;2.03;;
36105;SDS011;22159;55.736;38.048;2023-01-16T07:56:16;4.82;;;2.22;;
36105;SDS011;22159;55.736;38.048;2023-01-16T07:58:42;5.32;;;2.08;;
36105;SDS011;22159;55.736;38.048;2023-01-16T08:01:08;4.13;;;1.90;;
36105;SDS011;22159;55.736;38.048;2023-01-16T08:03:34;4.95;;;1.95;;
36105;SDS011;22159;55.736;38.048;2023-01-16T08:06:00;6.18;;;1.85;;
36105;SDS011;22159;55.736;38.048;2023-01-16T08:08:27;3.83;;;2.00;;
36105;SDS011;22159;55.736;38.048;2023-01-16T08:10:54;4.78;;;1.77;;
36105;SDS011;22159;55.736;38.048;2023-01-16T08:13:20;5.20;;;1.90;;
36105;SDS011;22159;55.736;38.048;2023-01-16T08:15:46;3.30;;;1.75;;
36105;SDS011;22159;55.736;38.048;2023-01-16T08:18:12;3.58;;;1.80;;
36105;SDS011;22159;55.736;38.048;2023-01-16T08:20:39;4.13;;;1.95;;
36105;SDS011;22159;55.736;38.048;2023-01-16T08:23:07;5.40;;;2.20;;
36105;SDS011;22159;55.736;38.048;2023-01-16T08:25:33;6.00;;;2.00;;
36105;SDS011;22159;55.736;38.048;2023-01-16T08:27:59;4.90;;;2.17;;
36105;SDS011;22159;55.736;38.048;2023-01-16T08:30:25;2.80;;;2.05;;
36105;SDS011;22159;55.736;38.048;2023-01-16T08:32:56;4.22;;;2.10;;
36105;SDS011;22159;55.736;38.048;2023-01-16T08:35:22;5.53;;;2.10;;
36105;SDS011;22159;55.736;38.048;2023-01-16T08:37:48;3.40;;;2.00;;
36105;SDS011;22159;55.736;38.048;2023-01-16T08:40:15;4.43;;;2.00;;
36105;SDS011;22159;55.736;38.048;2023-01-16T08:42:41;5.13;;;2.17;;
36105;SDS011;22159;55.736;38.048;2023-01-16T08:45:26;4.95;;;2.03;;
36105;SDS011;22159;55.736;38.048;2023-01-16T08:48:10;8.98;;;2.30;;
36105;SDS011;22159;55.736;38.048;2023-01-16T08:50:55;5.80;;;2.20;;
36105;SDS011;22159;55.736;38.048;2023-01-16T08:53:40;3.75;;;1.88;;
36105;SDS011;22159;55.736;38.048;2023-01-16T08:56:06;4.18;;;2.03;;
36105;SDS011;22159;55.736;38.048;2023-01-16T08:58:32;3.83;;;2.00;;
36105;SDS011;22159;55.736;38.048;2023-01-16T09:00:58;4.60;;;1.75;;
36105;SDS011;22159;55.736;38.048;2023-01-16T09:03:24;6.38;;;2.30;;
36105;SDS011;22159;55.736;38.048;2023-01-16T09:05:50;3.55;;;2.40;;
36105;SDS011;22159;55.736;38.048;2023-01-16T09:08:17;4.82;;;2.08;;
36105;SDS011;22159;55.736;38.048;2023-01-16T09:10:43;3.72;;;1.88;;
36105;SDS011;22159;55.736;38.048;2023-01-16T09:13:29;5.47;;;2.10;;
36105;SDS011;22159;55.736;38.048;2023-01-16T09:16:13;4.63;;;2.22;;
36105;SDS011;22159;55.736;38.048;2023-01-16T09:18:39;4.93;;;2.40;;
36105;SDS011;22159;55.736;38.048;2023-01-16T09:21:05;4.40;;;2.10;;
36105;SDS011;22159;55.736;38.048;2023-01-16T09:23:31;4.00;;;1.83;;
36105;SDS011;22159;55.736;38.048;2023-01-16T09:25:57;4.43;;;2.20;;
36105;SDS011;22159;55.736;38.048;2023-01-16T09:28:23;3.50;;;1.83;;
36105;SDS011;22159;55.736;38.048;2023-01-16T09:30:52;5.90;;;2.30;;
36105;SDS011;22159;55.736;38.048;2023-01-16T09:33:18;4.93;;;2.20;;
36105;SDS011;22159;55.736;38.048;2023-01-16T09:35:44;4.88;;;1.65;;
36105;SDS011;22159;55.736;38.048;2023-01-16T09:38:10;4.50;;;1.90;;
36105;SDS011;22159;55.736;38.048;2023-01-16T09:40:36;5.82;;;2.05;;
36105;SDS011;22159;55.736;38.048;2023-01-16T09:45:56;4.30;;;1.90;;
36105;SDS011;22159;55.736;38.048;2023-01-16T09:48:28;2.38;;;1.50;;
36105;SDS011;22159;55.736;38.048;2023-01-16T09:56:24;3.97;;;1.55;;
36105;SDS011;22159;55.736;38.048;2023-01-16T10:02:38;3.20;;;2.03;;
36105;SDS011;22159;55.736;38.048;2023-01-16T10:04:39;4.55;;;2.10;;
36105;SDS011;22159;55.736;38.048;2023-01-16T10:09:40;2.50;;;1.65;;
36105;SDS011;22159;55.736;38.048;2023-01-16T10:12:12;5.00;;;1.83;;
36105;SDS011;22159;55.736;38.048;2023-01-16T10:17:20;3.28;;;1.70;;
36105;SDS011;22159;55.736;38.048;2023-01-16T10:25:06;2.33;;;1.60;;
36105;SDS011;22159;55.736;38.048;2023-01-16T10:28:12;2.35;;;1.50;;
36105;SDS011;22159;55.736;38.048;2023-01-16T10:30:30;4.20;;;1.83;;
36105;SDS011;22159;55.736;38.048;2023-01-16T10:33:05;4.18;;;2.10;;
36105;SDS011;22159;55.736;38.048;2023-01-16T10:35:35;3.00;;;1.40;;
36105;SDS011;22159;55.736;38.048;2023-01-16T10:40:45;3.88;;;1.83;;
36105;SDS011;22159;55.736;38.048;2023-01-16T10:43:14;2.95;;;1.52;;
36105;SDS011;22159;55.736;38.048;2023-01-16T10:46:06;2.38;;;1.52;;
36105;SDS011;22159;55.736;38.048;2023-01-16T10:48:56;2.95;;;1.50;;
36105;SDS011;22159;55.736;38.048;2023-01-16T10:51:40;2.85;;;1.40;;
36105;SDS011;22159;55.736;38.048;2023-01-16T10:54:06;2.28;;;1.40;;
36105;SDS011;22159;55.736;38.048;2023-01-16T10:56:32;2.53;;;1.23;;
36105;SDS011;22159;55.736;38.048;2023-01-16T10:59:02;1.67;;;1.30;;
36105;SDS011;22159;55.736;38.048;2023-01-16T11:01:28;2.10;;;1.30;;
36105;SDS011;22159;55.736;38.048;2023-01-16T11:03:55;3.30;;;1.27;;
36105;SDS011;22159;55.736;38.048;2023-01-16T11:06:23;3.33;;;1.40;;
36105;SDS011;22159;55.736;38.048;2023-01-16T11:09:36;3.30;;;1.58;;
36105;SDS011;22159;55.736;38.048;2023-01-16T11:11:38;3.63;;;1.58;;
36105;SDS011;22159;55.736;38.048;2023-01-16T11:14:24;2.47;;;1.40;;
36105;SDS011;22159;55.736;38.048;2023-01-16T11:20:07;2.67;;;1.42;;
36105;SDS011;22159;55.736;38.048;2023-01-16T11:22:35;3.17;;;1.42;;
36105;SDS011;22159;55.736;38.048;2023-01-16T11:25:02;2.65;;;1.23;;
36105;SDS011;22159;55.736;38.048;2023-01-16T11:27:31;3.72;;;1.17;;
36105;SDS011;22159;55.736;38.048;2023-01-16T11:29:57;3.53;;;1.40;;
36105;SDS011;22159;55.736;38.048;2023-01-16T11:32:24;2.92;;;1.42;;
36105;SDS011;22159;55.736;38.048;2023-01-16T11:34:53;5.25;;;1.52;;
36105;SDS011;22159;55.736;38.048;2023-01-16T11:37:20;2.90;;;1.45;;
36105;SDS011;22159;55.736;38.048;2023-01-16T11:39:50;3.80;;;1.25;;
36105;SDS011;22159;55.736;38.048;2023-01-16T11:42:18;4.25;;;1.40;;
36105;SDS011;22159;55.736;38.048;2023-01-16T11:45:13;2.55;;;1.30;;
36105;SDS011;22159;55.736;38.048;2023-01-16T11:48:00;3.55;;;1.20;;
36105;SDS011;22159;55.736;38.048;2023-01-16T11:50:34;3.42;;;1.25;;
36105;SDS011;22159;55.736;38.048;2023-01-16T11:53:04;3.58;;;1.38;;
36105;SDS011;22159;55.736;38.048;2023-01-16T11:55:38;3.20;;;1.38;;
36105;SDS011;22159;55.736;38.048;2023-01-16T11:58:19;4.40;;;1.58;;
36105;SDS011;22159;55.736;38.048;2023-01-16T12:00:59;3.45;;;1.10;;
36105;SDS011;22159;55.736;38.048;2023-01-16T12:16:21;2.78;;;1.15;;
36105;SDS011;22159;55.736;38.048;2023-01-16T12:19:08;6.00;;;1.63;;
36105;SDS011;22159;55.736;38.048;2023-01-16T12:21:43;4.68;;;1.38;;
36105;SDS011;22159;55.736;38.048;2023-01-16T12:34:47;4.13;;;1.60;;
36105;SDS011;22159;55.736;38.048;2023-01-16T12:48:20;6.03;;;1.20;;
36105;SDS011;22159;55.736;38.048;2023-01-16T12:50:52;2.92;;;1.30;;
36105;SDS011;22159;55.736;38.048;2023-01-16T12:59:02;4.10;;;1.40;;
36105;SDS011;22159;55.736;38.048;2023-01-16T13:01:39;5.20;;;1.25;;
36105;SDS011;22159;55.736;38.048;2023-01-16T13:06:39;2.17;;;1.40;;
36105;SDS011;22159;55.736;38.048;2023-01-16T13:09:11;1.30;;;1.13;;
36105;SDS011;22159;55.736;38.048;2023-01-16T13:12:17;2.22;;;1.33;;
36105;SDS011;22159;55.736;38.048;2023-01-16T13:14:54;1.33;;;1.00;;
36105;SDS011;22159;55.736;38.048;2023-01-16T13:17:23;3.08;;;1.20;;
36105;SDS011;22159;55.736;38.048;2023-01-16T13:19:51;4.32;;;1.13;;
36105;SDS011;22159;55.736;38.048;2023-01-16T13:22:25;3.10;;;1.23;;
36105;SDS011;22159;55.736;38.048;2023-01-16T13:27:18;2.28;;;1.20;;
36105;SDS011;22159;55.736;38.048;2023-01-16T13:29:55;5.40;;;1.20;;
36105;SDS011;22159;55.736;38.048;2023-01-16T13:32:32;3.55;;;1.10;;
36105;SDS011;22159;55.736;38.048;2023-01-16T13:43:24;2.28;;;0.93;;
36105;SDS011;22159;55.736;38.048;2023-01-16T13:46:12;3.47;;;1.10;;
36105;SDS011;22159;55.736;38.048;2023-01-16T13:48:38;2.65;;;1.13;;
36105;SDS011;22159;55.736;38.048;2023-01-16T13:51:14;2.63;;;1.40;;
36105;SDS011;22159;55.736;38.048;2023-01-16T13:53:41;1.85;;;1.20;;
36105;SDS011;22159;55.736;38.048;2023-01-16T13:56:13;2.30;;;0.90;;
36105;SDS011;22159;55.736;38.048;2023-01-16T13:58:41;2.45;;;0.98;;
36105;SDS011;22159;55.736;38.048;2023-01-16T14:01:28;2.60;;;1.40;;
36105;SDS011;22159;55.736;38.048;2023-01-16T14:06:45;2.95;;;1.40;;
36105;SDS011;22159;55.736;38.048;2023-01-16T14:09:19;1.88;;;1.02;;
36105;SDS011;22159;55.736;38.048;2023-01-16T14:11:59;2.85;;;1.20;;
36105;SDS011;22159;55.736;38.048;2023-01-16T14:17:10;3.03;;;1.20;;
36105;SDS011;22159;55.736;38.048;2023-01-16T14:22:25;3.42;;;1.20;;
36105;SDS011;22159;55.736;38.048;2023-01-16T14:24:55;1.75;;;1.15;;
36105;SDS011;22159;55.736;38.048;2023-01-16T14:27:32;2.13;;;1.08;;
36105;SDS011;22159;55.736;38.048;2023-01-16T14:30:03;2.72;;;1.25;;
36105;SDS011;22159;55.736;38.048;2023-01-16T14:32:30;1.87;;;1.00;;
36105;SDS011;22159;55.736;38.048;2023-01-16T14:34:58;2.45;;;1.00;;
36105;SDS011;22159;55.736;38.048;2023-01-16T14:37:46;2.47;;;1.02;;
36105;SDS011;22159;55.736;38.048;2023-01-16T14:40:20;2.45;;;1.02;;
36105;SDS011;22159;55.736;38.048;2023-01-16T14:42:48;2.25;;;0.95;;
36105;SDS011;22159;55.736;38.048;2023-01-16T14:45:34;3.22;;;1.05;;
36105;SDS011;22159;55.736;38.048;2023-01-16T14:51:18;2.92;;;1.00;;
36105;SDS011;22159;55.736;38.048;2023-01-16T14:54:04;1.48;;;1.02;;
36105;SDS011;22159;55.736;38.048;2023-01-16T14:56:50;2.40;;;0.98;;
36105;SDS011;22159;55.736;38.048;2023-01-16T14:59:29;2.05;;;1.10;;
36105;SDS011;22159;55.736;38.048;2023-01-16T15:02:00;1.65;;;0.88;;
36105;SDS011;22159;55.736;38.048;2023-01-16T15:07:17;2.70;;;0.98;;
36105;SDS011;22159;55.736;38.048;2023-01-16T15:09:46;3.70;;;1.33;;
36105;SDS011;22159;55.736;38.048;2023-01-16T15:12:14;1.85;;;1.05;;
36105;SDS011;22159;55.736;38.048;2023-01-16T15:17:35;2.05;;;1.30;;
36105;SDS011;22159;55.736;38.048;2023-01-16T15:23:26;2.55;;;1.10;;
36105;SDS011;22159;55.736;38.048;2023-01-16T15:25:57;1.67;;;0.90;;
36105;SDS011;22159;55.736;38.048;2023-01-16T15:31:00;1.45;;;0.98;;
36105;SDS011;22159;55.736;38.048;2023-01-16T15:33:27;1.83;;;1.00;;
36105;SDS011;22159;55.736;38.048;2023-01-16T15:36:18;1.88;;;1.00;;
36105;SDS011;22159;55.736;38.048;2023-01-16T15:38:46;1.70;;;1.10;;
36105;SDS011;22159;55.736;38.048;2023-01-16T15:41:12;2.13;;;1.27;;
36105;SDS011;22159;55.736;38.048;2023-01-16T15:43:38;2.42;;;1.15;;
36105;SDS011;22159;55.736;38.048;2023-01-16T15:46:48;2.28;;;0.93;;
36105;SDS011;22159;55.736;38.048;2023-01-16T15:49:26;1.95;;;1.23;;
36105;SDS011;22159;55.736;38.048;2023-01-16T15:51:55;2.73;;;1.07;;
36105;SDS011;22159;55.736;38.048;2023-01-16T15:54:22;1.92;;;1.00;;
36105;SDS011;22159;55.736;38.048;2023-01-16T15:56:48;4.00;;;1.00;;
36105;SDS011;22159;55.736;38.048;2023-01-16T15:59:22;2.70;;;1.20;;
36105;SDS011;22159;55.736;38.048;2023-01-16T16:01:48;4.82;;;1.48;;
36105;SDS011;22159;55.736;38.048;2023-01-16T16:04:14;1.40;;;0.90;;
36105;SDS011;22159;55.736;38.048;2023-01-16T16:06:40;1.52;;;0.95;;
36105;SDS011;22159;55.736;38.048;2023-01-16T16:09:13;3.08;;;1.10;;
36105;SDS011;22159;55.736;38.048;2023-01-16T16:11:42;2.03;;;0.90;;
36105;SDS011;22159;55.736;38.048;2023-01-16T16:17:25;1.80;;;1.00;;
36105;SDS011;22159;55.736;38.048;2023-01-16T16:28:02;1.25;;;1.00;;
36105;SDS011;22159;55.736;38.048;2023-01-16T16:30:28;2.75;;;1.30;;
36105;SDS011;22159;55.736;38.048;2023-01-16T16:32:55;1.98;;;1.20;;
36105;SDS011;22159;55.736;38.048;2023-01-16T16:35:33;2.35;;;1.00;;
36105;SDS011;22159;55.736;38.048;2023-01-16T16:38:00;1.80;;;1.00;;
36105;SDS011;22159;55.736;38.048;2023-01-16T16:40:27;1.38;;;1.00;;
36105;SDS011;22159;55.736;38.048;2023-01-16T16:42:54;1.70;;;0.95;;
36105;SDS011;22159;55.736;38.048;2023-01-16T16:45:22;2.03;;;0.93;;
36105;SDS011;22159;55.736;38.048;2023-01-16T16:48:12;2.08;;;1.20;;
36105;SDS011;22159;55.736;38.048;2023-01-16T16:50:35;1.73;;;1.02;;
36105;SDS011;22159;55.736;38.048;2023-01-16T16:53:12;1.83;;;1.10;;
36105;SDS011;22159;55.736;38.048;2023-01-16T16:55:39;2.55;;;1.00;;
36105;SDS011;22159;55.736;38.048;2023-01-16T16:58:15;1.00;;;0.80;;
36105;SDS011;22159;55.736;38.048;2023-01-16T17:00:41;3.28;;;1.27;;
36105;SDS011;22159;55.736;38.048;2023-01-16T17:03:13;2.00;;;1.08;;
36105;SDS011;22159;55.736;38.048;2023-01-16T17:05:41;2.28;;;1.27;;
36105;SDS011;22159;55.736;38.048;2023-01-16T17:08:08;1.85;;;1.40;;
36105;SDS011;22159;55.736;38.048;2023-01-16T17:10:38;3.03;;;1.23;;
36105;SDS011;22159;55.736;38.048;2023-01-16T17:13:04;1.70;;;0.90;;
36105;SDS011;22159;55.736;38.048;2023-01-16T17:15:30;2.17;;;1.17;;
36105;SDS011;22159;55.736;38.048;2023-01-16T17:17:56;2.42;;;1.10;;
36105;SDS011;22159;55.736;38.048;2023-01-16T17:20:22;2.78;;;1.33;;
36105;SDS011;22159;55.736;38.048;2023-01-16T17:22:49;2.65;;;1.10;;
36105;SDS011;22159;55.736;38.048;2023-01-16T17:25:15;1.13;;;0.90;;
36105;SDS011;22159;55.736;38.048;2023-01-16T17:27:52;2.25;;;1.30;;
36105;SDS011;22159;55.736;38.048;2023-01-16T17:30:19;2.88;;;1.45;;
36105;SDS011;22159;55.736;38.048;2023-01-16T17:32:48;1.52;;;1.30;;
36105;SDS011;22159;55.736;38.048;2023-01-16T17:35:16;2.25;;;1.33;;